sensor_id;sensor_type;location;lat;lon;timestamp;temperature;humidity
39825;DHT22;25503;52.532;13.640;2023-06-26T00:00:19;20.00;99.90
39825;DHT22;25503;52.532;13.640;2023-06-26T00:02:45;20.00;99.90
39825;DHT22;25503;52.532;13.640;2023-06-26T00:05:11;20.00;99.90
39825;DHT22;25503;52.532;13.640;2023-06-26T00:07:37;19.90;99.90
39825;DHT22;25503;52.532;13.640;2023-06-26T00:10:03;19.90;99.90
39825;DHT22;25503;52.532;13.640;2023-06-26T00:12:29;19.90;99.90
39825;DHT22;25503;52.532;13.640;2023-06-26T00:14:55;19.80;99.90
39825;DHT22;25503;52.532;13.640;2023-06-26T00:17:21;19.80;99.90
39825;DHT22;25503;52.532;13.640;2023-06-26T00:19:47;19.80;99.90
39825;DHT22;25503;52.532;13.640;2023-06-26T00:22:13;19.80;99.90
39825;DHT22;25503;52.532;13.640;2023-06-26T00:24:38;19.70;99.90
39825;DHT22;25503;52.532;13.640;2023-06-26T00:27:04;19.70;99.90
39825;DHT22;25503;52.532;13.640;2023-06-26T00:29:30;19.70;99.90
39825;DHT22;25503;52.532;13.640;2023-06-26T00:31:55;19.60;99.90
39825;DHT22;25503;52.532;13.640;2023-06-26T00:34:21;19.60;99.90
39825;DHT22;25503;52.532;13.640;2023-06-26T00:36:46;19.60;99.90
39825;DHT22;25503;52.532;13.640;2023-06-26T00:39:12;19.60;99.90
39825;DHT22;25503;52.532;13.640;2023-06-26T00:41:38;19.60;99.90
39825;DHT22;25503;52.532;13.640;2023-06-26T00:44:04;19.60;99.90
39825;DHT22;25503;52.532;13.640;2023-06-26T00:46:31;19.60;99.90
39825;DHT22;25503;52.532;13.640;2023-06-26T00:49:01;19.70;99.90
39825;DHT22;25503;52.532;13.640;2023-06-26T00:51:29;19.60;99.90
39825;DHT22;25503;52.532;13.640;2023-06-26T00:53:55;19.60;99.90
39825;DHT22;25503;52.532;13.640;2023-06-26T00:56:21;19.60;99.90
39825;DHT22;25503;52.532;13.640;2023-06-26T00:58:47;19.60;99.90
39825;DHT22;25503;52.532;13.640;2023-06-26T01:01:13;19.60;99.90
39825;DHT22;25503;52.532;13.640;2023-06-26T01:03:46;19.60;99.90
39825;DHT22;25503;52.532;13.640;2023-06-26T01:06:17;19.60;99.90
39825;DHT22;25503;52.532;13.640;2023-06-26T01:08:44;19.60;99.90
39825;DHT22;25503;52.532;13.640;2023-06-26T01:11:11;19.60;99.90
39825;DHT22;25503;52.532;13.640;2023-06-26T01:13:38;19.60;99.90
39825;DHT22;25503;52.532;13.640;2023-06-26T01:16:05;19.60;99.90
39825;DHT22;25503;52.532;13.640;2023-06-26T01:18:32;19.60;99.90
39825;DHT22;25503;52.532;13.640;2023-06-26T01:20:58;19.60;99.90
39825;DHT22;25503;52.532;13.640;2023-06-26T01:23:38;19.50;99.90
39825;DHT22;25503;52.532;13.640;2023-06-26T01:26:16;19.50;99.90
39825;DHT22;25503;52.532;13.640;2023-06-26T01:28:43;19.50;99.90
39825;DHT22;25503;52.532;13.640;2023-06-26T01:31:11;19.50;99.90
39825;DHT22;25503;52.532;13.640;2023-06-26T01:33:37;19.40;99.90
39825;DHT22;25503;52.532;13.640;2023-06-26T01:36:04;19.40;99.90
39825;DHT22;25503;52.532;13.640;2023-06-26T01:38:30;19.40;99.90
39825;DHT22;25503;52.532;13.640;2023-06-26T01:40:56;19.40;99.90
39825;DHT22;25503;52.532;13.640;2023-06-26T01:46:22;19.40;99.90
39825;DHT22;25503;52.532;13.640;2023-06-26T01:49:08;19.40;99.90
39825;DHT22;25503;52.532;13.640;2023-06-26T01:51:42;19.40;99.90
39825;DHT22;25503;52.532;13.640;2023-06-26T01:54:17;19.40;99.90
39825;DHT22;25503;52.532;13.640;2023-06-26T01:56:45;19.40;99.90
39825;DHT22;25503;52.532;13.640;2023-06-26T01:59:12;19.40;99.90
39825;DHT22;25503;52.532;13.640;2023-06-26T02:01:41;19.40;99.90
39825;DHT22;25503;52.532;13.640;2023-06-26T02:04:06;19.30;99.90
39825;DHT22;25503;52.532;13.640;2023-06-26T02:06:32;19.30;99.90
39825;DHT22;25503;52.532;13.640;2023-06-26T02:08:58;19.30;99.90
39825;DHT22;25503;52.532;13.640;2023-06-26T02:11:24;19.30;99.90
39825;DHT22;25503;52.532;13.640;2023-06-26T02:13:49;19.30;99.90
39825;DHT22;25503;52.532;13.640;2023-06-26T02:16:15;19.30;99.90
39825;DHT22;25503;52.532;13.640;2023-06-26T02:18:40;19.20;99.90
39825;DHT22;25503;52.532;13.640;2023-06-26T02:21:06;19.20;99.90
39825;DHT22;25503;52.532;13.640;2023-06-26T02:23:32;19.20;99.90
39825;DHT22;25503;52.532;13.640;2023-06-26T02:25:58;19.10;99.90
39825;DHT22;25503;52.532;13.640;2023-06-26T02:28:23;19.10;99.90
39825;DHT22;25503;52.532;13.640;2023-06-26T02:30:49;19.10;99.90
39825;DHT22;25503;52.532;13.640;2023-06-26T02:33:14;19.10;99.90
39825;DHT22;25503;52.532;13.640;2023-06-26T02:35:40;19.10;99.90
39825;DHT22;25503;52.532;13.640;2023-06-26T02:38:06;19.10;99.90
39825;DHT22;25503;52.532;13.640;2023-06-26T02:40:31;19.00;99.90
39825;DHT22;25503;52.532;13.640;2023-06-26T02:42:57;19.00;99.90
39825;DHT22;25503;52.532;13.640;2023-06-26T02:45:22;18.90;99.90
39825;DHT22;25503;52.532;13.640;2023-06-26T02:47:48;18.90;99.90
39825;DHT22;25503;52.532;13.640;2023-06-26T02:50:13;18.90;99.90
39825;DHT22;25503;52.532;13.640;2023-06-26T02:52:39;18.90;99.90
39825;DHT22;25503;52.532;13.640;2023-06-26T02:55:05;18.90;99.90
39825;DHT22;25503;52.532;13.640;2023-06-26T02:57:31;18.90;99.90
39825;DHT22;25503;52.532;13.640;2023-06-26T02:59:56;18.90;99.90
39825;DHT22;25503;52.532;13.640;2023-06-26T03:02:22;18.90;99.90
39825;DHT22;25503;52.532;13.640;2023-06-26T03:04:47;18.90;99.90
39825;DHT22;25503;52.532;13.640;2023-06-26T03:07:13;18.90;99.90
39825;DHT22;25503;52.532;13.640;2023-06-26T03:09:38;18.90;99.90
39825;DHT22;25503;52.532;13.640;2023-06-26T03:12:04;18.90;99.90
39825;DHT22;25503;52.532;13.640;2023-06-26T03:14:30;18.90;99.90
39825;DHT22;25503;52.532;13.640;2023-06-26T03:16:57;18.90;99.90
39825;DHT22;25503;52.532;13.640;2023-06-26T03:19:24;18.90;99.90
39825;DHT22;25503;52.532;13.640;2023-06-26T03:21:50;18.90;99.90
39825;DHT22;25503;52.532;13.640;2023-06-26T03:24:16;18.90;99.90
39825;DHT22;25503;52.532;13.640;2023-06-26T03:26:41;18.90;99.90
39825;DHT22;25503;52.532;13.640;2023-06-26T03:29:07;18.90;99.90
39825;DHT22;25503;52.532;13.640;2023-06-26T03:31:32;18.90;99.90
39825;DHT22;25503;52.532;13.640;2023-06-26T03:33:58;18.90;99.90
39825;DHT22;25503;52.532;13.640;2023-06-26T03:36:23;18.90;99.90
39825;DHT22;25503;52.532;13.640;2023-06-26T03:38:49;18.90;99.90
39825;DHT22;25503;52.532;13.640;2023-06-26T03:41:15;18.90;99.90
39825;DHT22;25503;52.532;13.640;2023-06-26T03:43:40;18.90;99.90
39825;DHT22;25503;52.532;13.640;2023-06-26T03:46:06;18.90;99.90
39825;DHT22;25503;52.532;13.640;2023-06-26T03:48:31;18.90;99.90
39825;DHT22;25503;52.532;13.640;2023-06-26T03:50:57;18.90;99.90
39825;DHT22;25503;52.532;13.640;2023-06-26T03:53:23;19.00;99.90
39825;DHT22;25503;52.532;13.640;2023-06-26T03:55:49;18.90;99.90
39825;DHT22;25503;52.532;13.640;2023-06-26T03:58:14;19.00;99.90
39825;DHT22;25503;52.532;13.640;2023-06-26T04:00:40;19.00;99.90
39825;DHT22;25503;52.532;13.640;2023-06-26T04:03:06;19.00;99.90
39825;DHT22;25503;52.532;13.640;2023-06-26T04:05:31;19.00;99.90
39825;DHT22;25503;52.532;13.640;2023-06-26T04:07:57;19.00;99.90
39825;DHT22;25503;52.532;13.640;2023-06-26T04:10:23;19.00;99.90
39825;DHT22;25503;52.532;13.640;2023-06-26T04:12:48;19.00;99.90
39825;DHT22;25503;52.532;13.640;2023-06-26T04:15:14;19.00;99.90
39825;DHT22;25503;52.532;13.640;2023-06-26T04:17:39;19.00;99.90
39825;DHT22;25503;52.532;13.640;2023-06-26T04:20:05;19.00;99.90
39825;DHT22;25503;52.532;13.640;2023-06-26T04:22:32;19.00;99.90
39825;DHT22;25503;52.532;13.640;2023-06-26T04:24:58;19.00;99.90
39825;DHT22;25503;52.532;13.640;2023-06-26T04:27:23;19.00;99.90
39825;DHT22;25503;52.532;13.640;2023-06-26T04:29:49;19.10;99.90
39825;DHT22;25503;52.532;13.640;2023-06-26T04:32:14;19.10;99.90
39825;DHT22;25503;52.532;13.640;2023-06-26T04:34:40;19.20;99.90
39825;DHT22;25503;52.532;13.640;2023-06-26T04:37:08;19.20;99.90
39825;DHT22;25503;52.532;13.640;2023-06-26T04:39:35;19.30;99.90
39825;DHT22;25503;52.532;13.640;2023-06-26T04:42:03;19.30;99.90
39825;DHT22;25503;52.532;13.640;2023-06-26T04:44:28;19.40;99.90
39825;DHT22;25503;52.532;13.640;2023-06-26T04:46:54;19.40;99.90
39825;DHT22;25503;52.532;13.640;2023-06-26T04:49:19;19.50;99.90
39825;DHT22;25503;52.532;13.640;2023-06-26T04:51:45;19.60;99.90
39825;DHT22;25503;52.532;13.640;2023-06-26T04:54:11;19.60;99.90
39825;DHT22;25503;52.532;13.640;2023-06-26T04:56:37;19.70;99.90
39825;DHT22;25503;52.532;13.640;2023-06-26T04:59:03;19.80;99.90
39825;DHT22;25503;52.532;13.640;2023-06-26T05:01:29;19.80;99.90
39825;DHT22;25503;52.532;13.640;2023-06-26T05:04:01;20.00;99.90
39825;DHT22;25503;52.532;13.640;2023-06-26T05:06:27;20.00;99.90
39825;DHT22;25503;52.532;13.640;2023-06-26T05:08:53;20.10;99.90
39825;DHT22;25503;52.532;13.640;2023-06-26T05:11:18;20.20;99.90
39825;DHT22;25503;52.532;13.640;2023-06-26T05:13:44;20.30;99.90
39825;DHT22;25503;52.532;13.640;2023-06-26T05:16:10;20.40;99.90
39825;DHT22;25503;52.532;13.640;2023-06-26T05:18:36;20.50;99.90
39825;DHT22;25503;52.532;13.640;2023-06-26T05:21:03;20.60;99.90
39825;DHT22;25503;52.532;13.640;2023-06-26T05:23:33;20.70;99.90
39825;DHT22;25503;52.532;13.640;2023-06-26T05:26:03;20.90;99.90
39825;DHT22;25503;52.532;13.640;2023-06-26T05:28:29;20.90;99.90
39825;DHT22;25503;52.532;13.640;2023-06-26T05:30:57;21.00;99.90
39825;DHT22;25503;52.532;13.640;2023-06-26T05:33:24;21.10;99.90
39825;DHT22;25503;52.532;13.640;2023-06-26T05:35:51;21.20;99.90
39825;DHT22;25503;52.532;13.640;2023-06-26T05:38:17;21.20;99.90
39825;DHT22;25503;52.532;13.640;2023-06-26T05:40:43;21.30;99.90
39825;DHT22;25503;52.532;13.640;2023-06-26T05:43:09;21.40;99.90
39825;DHT22;25503;52.532;13.640;2023-06-26T05:45:35;21.40;99.90
39825;DHT22;25503;52.532;13.640;2023-06-26T05:48:01;21.50;99.90
39825;DHT22;25503;52.532;13.640;2023-06-26T05:50:28;21.60;99.90
39825;DHT22;25503;52.532;13.640;2023-06-26T05:52:54;21.70;99.90
39825;DHT22;25503;52.532;13.640;2023-06-26T05:55:20;21.70;99.90
39825;DHT22;25503;52.532;13.640;2023-06-26T05:57:46;21.80;99.90
39825;DHT22;25503;52.532;13.640;2023-06-26T06:00:13;21.90;99.90
39825;DHT22;25503;52.532;13.640;2023-06-26T06:02:40;22.00;99.90
39825;DHT22;25503;52.532;13.640;2023-06-26T06:05:07;22.10;99.90
39825;DHT22;25503;52.532;13.640;2023-06-26T06:07:34;22.20;99.90
39825;DHT22;25503;52.532;13.640;2023-06-26T06:10:00;22.30;99.90
39825;DHT22;25503;52.532;13.640;2023-06-26T06:12:26;22.40;99.90
39825;DHT22;25503;52.532;13.640;2023-06-26T06:14:52;22.50;99.90
39825;DHT22;25503;52.532;13.640;2023-06-26T06:17:20;22.50;99.90
39825;DHT22;25503;52.532;13.640;2023-06-26T06:19:45;22.60;99.90
39825;DHT22;25503;52.532;13.640;2023-06-26T06:22:11;22.70;99.90
39825;DHT22;25503;52.532;13.640;2023-06-26T06:24:37;22.80;99.90
39825;DHT22;25503;52.532;13.640;2023-06-26T06:27:03;22.80;99.90
39825;DHT22;25503;52.532;13.640;2023-06-26T06:29:28;22.90;99.90
39825;DHT22;25503;52.532;13.640;2023-06-26T06:31:54;22.90;99.90
39825;DHT22;25503;52.532;13.640;2023-06-26T06:34:19;23.00;99.90
39825;DHT22;25503;52.532;13.640;2023-06-26T06:36:46;23.10;99.90
39825;DHT22;25503;52.532;13.640;2023-06-26T06:39:11;23.20;99.90
39825;DHT22;25503;52.532;13.640;2023-06-26T06:41:37;23.20;99.90
39825;DHT22;25503;52.532;13.640;2023-06-26T06:44:03;23.30;99.90
39825;DHT22;25503;52.532;13.640;2023-06-26T06:46:29;23.30;99.90
39825;DHT22;25503;52.532;13.640;2023-06-26T06:48:55;23.40;99.90
39825;DHT22;25503;52.532;13.640;2023-06-26T06:51:21;23.50;99.90
39825;DHT22;25503;52.532;13.640;2023-06-26T06:53:47;23.60;99.90
39825;DHT22;25503;52.532;13.640;2023-06-26T06:56:13;23.60;99.90
39825;DHT22;25503;52.532;13.640;2023-06-26T06:58:38;23.70;99.90
39825;DHT22;25503;52.532;13.640;2023-06-26T07:01:09;23.90;99.90
39825;DHT22;25503;52.532;13.640;2023-06-26T07:03:35;24.00;99.90
39825;DHT22;25503;52.532;13.640;2023-06-26T07:06:01;24.10;99.90
39825;DHT22;25503;52.532;13.640;2023-06-26T07:08:28;24.20;99.90
39825;DHT22;25503;52.532;13.640;2023-06-26T07:10:55;24.30;99.90
39825;DHT22;25503;52.532;13.640;2023-06-26T07:13:22;24.30;99.90
39825;DHT22;25503;52.532;13.640;2023-06-26T07:15:48;24.40;99.90
39825;DHT22;25503;52.532;13.640;2023-06-26T07:18:14;24.50;99.90
39825;DHT22;25503;52.532;13.640;2023-06-26T07:20:39;24.60;99.90
39825;DHT22;25503;52.532;13.640;2023-06-26T07:23:05;24.70;99.90
39825;DHT22;25503;52.532;13.640;2023-06-26T07:25:30;24.80;99.90
39825;DHT22;25503;52.532;13.640;2023-06-26T07:27:56;24.90;99.90
39825;DHT22;25503;52.532;13.640;2023-06-26T07:30:22;25.00;99.90
39825;DHT22;25503;52.532;13.640;2023-06-26T07:32:48;25.10;99.90
39825;DHT22;25503;52.532;13.640;2023-06-26T07:35:15;25.20;99.90
39825;DHT22;25503;52.532;13.640;2023-06-26T07:37:40;25.20;99.90
39825;DHT22;25503;52.532;13.640;2023-06-26T07:40:06;25.30;99.90
39825;DHT22;25503;52.532;13.640;2023-06-26T07:42:32;25.40;99.90
39825;DHT22;25503;52.532;13.640;2023-06-26T07:44:58;25.50;99.90
39825;DHT22;25503;52.532;13.640;2023-06-26T07:47:24;25.60;99.90
39825;DHT22;25503;52.532;13.640;2023-06-26T07:49:49;25.70;99.90
39825;DHT22;25503;52.532;13.640;2023-06-26T07:52:15;25.70;99.90
39825;DHT22;25503;52.532;13.640;2023-06-26T07:54:41;25.80;99.90
39825;DHT22;25503;52.532;13.640;2023-06-26T07:57:07;25.90;99.90
39825;DHT22;25503;52.532;13.640;2023-06-26T07:59:34;26.00;99.90
39825;DHT22;25503;52.532;13.640;2023-06-26T08:02:00;26.10;99.90
39825;DHT22;25503;52.532;13.640;2023-06-26T08:04:27;26.30;99.90
39825;DHT22;25503;52.532;13.640;2023-06-26T08:06:56;26.40;99.90
39825;DHT22;25503;52.532;13.640;2023-06-26T08:09:24;26.50;99.90
39825;DHT22;25503;52.532;13.640;2023-06-26T08:11:50;26.60;99.90
39825;DHT22;25503;52.532;13.640;2023-06-26T08:14:16;26.80;99.90
39825;DHT22;25503;52.532;13.640;2023-06-26T08:16:43;26.90;99.90
39825;DHT22;25503;52.532;13.640;2023-06-26T08:19:09;27.00;99.90
39825;DHT22;25503;52.532;13.640;2023-06-26T08:21:35;27.20;99.90
39825;DHT22;25503;52.532;13.640;2023-06-26T08:24:01;27.40;99.90
39825;DHT22;25503;52.532;13.640;2023-06-26T08:26:27;27.60;99.90
39825;DHT22;25503;52.532;13.640;2023-06-26T08:28:53;27.70;99.90
39825;DHT22;25503;52.532;13.640;2023-06-26T08:31:19;27.80;99.90
39825;DHT22;25503;52.532;13.640;2023-06-26T08:33:45;27.90;99.90
39825;DHT22;25503;52.532;13.640;2023-06-26T08:36:10;28.10;99.90
39825;DHT22;25503;52.532;13.640;2023-06-26T08:38:36;28.20;99.90
39825;DHT22;25503;52.532;13.640;2023-06-26T08:41:02;28.30;99.90
39825;DHT22;25503;52.532;13.640;2023-06-26T08:43:27;28.30;99.90
39825;DHT22;25503;52.532;13.640;2023-06-26T08:45:53;28.40;99.90
39825;DHT22;25503;52.532;13.640;2023-06-26T08:48:21;28.50;99.90
39825;DHT22;25503;52.532;13.640;2023-06-26T08:50:48;28.40;99.90
39825;DHT22;25503;52.532;13.640;2023-06-26T08:53:32;28.50;99.90
39825;DHT22;25503;52.532;13.640;2023-06-26T08:55:59;28.70;99.90
39825;DHT22;25503;52.532;13.640;2023-06-26T08:58:25;28.70;99.90
39825;DHT22;25503;52.532;13.640;2023-06-26T09:00:51;28.80;99.90
39825;DHT22;25503;52.532;13.640;2023-06-26T09:03:17;28.90;99.90
39825;DHT22;25503;52.532;13.640;2023-06-26T09:05:43;29.10;99.90
39825;DHT22;25503;52.532;13.640;2023-06-26T09:08:09;29.30;99.90
39825;DHT22;25503;52.532;13.640;2023-06-26T09:10:35;29.40;99.90
39825;DHT22;25503;52.532;13.640;2023-06-26T09:13:00;29.60;99.90
39825;DHT22;25503;52.532;13.640;2023-06-26T09:15:36;29.50;99.90
39825;DHT22;25503;52.532;13.640;2023-06-26T09:18:04;29.70;99.90
39825;DHT22;25503;52.532;13.640;2023-06-26T09:20:31;29.90;99.90
39825;DHT22;25503;52.532;13.640;2023-06-26T09:22:59;30.10;99.90
39825;DHT22;25503;52.532;13.640;2023-06-26T09:25:25;30.20;99.90
39825;DHT22;25503;52.532;13.640;2023-06-26T09:27:50;30.40;99.90
39825;DHT22;25503;52.532;13.640;2023-06-26T09:30:19;30.60;99.90
39825;DHT22;25503;52.532;13.640;2023-06-26T09:32:45;30.50;99.90
39825;DHT22;25503;52.532;13.640;2023-06-26T09:35:11;30.50;99.90
39825;DHT22;25503;52.532;13.640;2023-06-26T09:37:37;30.50;99.90
39825;DHT22;25503;52.532;13.640;2023-06-26T09:40:03;30.60;99.90
39825;DHT22;25503;52.532;13.640;2023-06-26T09:42:30;30.90;99.90
39825;DHT22;25503;52.532;13.640;2023-06-26T09:44:55;30.90;99.90
39825;DHT22;25503;52.532;13.640;2023-06-26T09:47:22;30.80;99.90
39825;DHT22;25503;52.532;13.640;2023-06-26T09:49:48;31.00;99.90
39825;DHT22;25503;52.532;13.640;2023-06-26T09:52:17;31.20;99.90
39825;DHT22;25503;52.532;13.640;2023-06-26T09:54:44;31.30;99.90
39825;DHT22;25503;52.532;13.640;2023-06-26T09:57:14;31.20;99.90
39825;DHT22;25503;52.532;13.640;2023-06-26T09:59:41;31.40;99.90
39825;DHT22;25503;52.532;13.640;2023-06-26T10:02:07;31.50;99.90
39825;DHT22;25503;52.532;13.640;2023-06-26T10:04:35;31.40;99.90
39825;DHT22;25503;52.532;13.640;2023-06-26T10:07:02;31.50;99.90
39825;DHT22;25503;52.532;13.640;2023-06-26T10:09:30;31.60;99.90
39825;DHT22;25503;52.532;13.640;2023-06-26T10:12:01;31.70;99.90
39825;DHT22;25503;52.532;13.640;2023-06-26T10:14:35;31.50;99.90
39825;DHT22;25503;52.532;13.640;2023-06-26T10:17:04;31.60;99.90
39825;DHT22;25503;52.532;13.640;2023-06-26T10:19:33;31.70;99.90
39825;DHT22;25503;52.532;13.640;2023-06-26T10:22:01;31.80;99.90
39825;DHT22;25503;52.532;13.640;2023-06-26T10:24:29;32.00;99.90
39825;DHT22;25503;52.532;13.640;2023-06-26T10:27:09;32.00;99.90
39825;DHT22;25503;52.532;13.640;2023-06-26T10:29:36;32.20;99.90
39825;DHT22;25503;52.532;13.640;2023-06-26T10:32:04;32.20;99.90
39825;DHT22;25503;52.532;13.640;2023-06-26T10:34:30;32.20;99.90
39825;DHT22;25503;52.532;13.640;2023-06-26T10:37:00;32.40;99.90
39825;DHT22;25503;52.532;13.640;2023-06-26T10:39:26;32.30;99.90
39825;DHT22;25503;52.532;13.640;2023-06-26T10:41:54;32.50;99.90
39825;DHT22;25503;52.532;13.640;2023-06-26T10:44:20;32.20;99.90
39825;DHT22;25503;52.532;13.640;2023-06-26T10:46:50;32.10;99.90
39825;DHT22;25503;52.532;13.640;2023-06-26T10:49:16;32.10;99.90
39825;DHT22;25503;52.532;13.640;2023-06-26T10:51:49;32.10;99.90
39825;DHT22;25503;52.532;13.640;2023-06-26T10:54:16;32.00;99.90
39825;DHT22;25503;52.532;13.640;2023-06-26T10:56:47;32.10;99.90
39825;DHT22;25503;52.532;13.640;2023-06-26T10:59:23;31.90;99.90
39825;DHT22;25503;52.532;13.640;2023-06-26T11:01:56;32.10;99.90
39825;DHT22;25503;52.532;13.640;2023-06-26T11:04:44;32.40;99.90
39825;DHT22;25503;52.532;13.640;2023-06-26T11:10:00;32.60;99.90
39825;DHT22;25503;52.532;13.640;2023-06-26T11:15:13;32.80;99.90
39825;DHT22;25503;52.532;13.640;2023-06-26T11:17:40;32.80;99.90
39825;DHT22;25503;52.532;13.640;2023-06-26T11:20:07;32.60;99.90
39825;DHT22;25503;52.532;13.640;2023-06-26T11:22:40;32.30;99.90
39825;DHT22;25503;52.532;13.640;2023-06-26T11:25:08;32.20;99.90
39825;DHT22;25503;52.532;13.640;2023-06-26T11:27:40;32.30;99.90
39825;DHT22;25503;52.532;13.640;2023-06-26T11:30:08;32.50;99.90
39825;DHT22;25503;52.532;13.640;2023-06-26T11:32:35;32.10;99.90
39825;DHT22;25503;52.532;13.640;2023-06-26T11:35:01;32.10;99.90
39825;DHT22;25503;52.532;13.640;2023-06-26T11:37:27;32.10;99.90
39825;DHT22;25503;52.532;13.640;2023-06-26T11:39:53;32.20;99.90
39825;DHT22;25503;52.532;13.640;2023-06-26T11:42:19;32.50;99.90
39825;DHT22;25503;52.532;13.640;2023-06-26T11:44:46;32.70;99.90
39825;DHT22;25503;52.532;13.640;2023-06-26T11:47:19;32.90;99.90
39825;DHT22;25503;52.532;13.640;2023-06-26T11:49:46;32.80;99.90
39825;DHT22;25503;52.532;13.640;2023-06-26T11:52:12;32.80;99.90
39825;DHT22;25503;52.532;13.640;2023-06-26T11:54:38;32.70;99.90
39825;DHT22;25503;52.532;13.640;2023-06-26T11:57:04;32.80;99.90
39825;DHT22;25503;52.532;13.640;2023-06-26T11:59:40;33.20;99.90
39825;DHT22;25503;52.532;13.640;2023-06-26T12:02:13;33.00;99.90
39825;DHT22;25503;52.532;13.640;2023-06-26T12:04:43;33.00;99.90
39825;DHT22;25503;52.532;13.640;2023-06-26T12:07:10;33.10;99.90
39825;DHT22;25503;52.532;13.640;2023-06-26T12:09:44;33.20;99.90
39825;DHT22;25503;52.532;13.640;2023-06-26T12:12:12;33.30;99.90
39825;DHT22;25503;52.532;13.640;2023-06-26T12:14:39;33.60;99.90
39825;DHT22;25503;52.532;13.640;2023-06-26T12:17:15;33.80;99.20
39825;DHT22;25503;52.532;13.640;2023-06-26T12:19:45;33.80;99.10
39825;DHT22;25503;52.532;13.640;2023-06-26T12:22:13;33.60;99.60
39825;DHT22;25503;52.532;13.640;2023-06-26T12:24:39;33.70;99.90
39825;DHT22;25503;52.532;13.640;2023-06-26T12:27:16;33.60;99.90
39825;DHT22;25503;52.532;13.640;2023-06-26T12:29:50;33.70;99.70
39825;DHT22;25503;52.532;13.640;2023-06-26T12:32:17;33.70;98.90
39825;DHT22;25503;52.532;13.640;2023-06-26T12:34:48;33.70;99.90
39825;DHT22;25503;52.532;13.640;2023-06-26T12:37:14;33.80;99.20
39825;DHT22;25503;52.532;13.640;2023-06-26T12:42:19;33.90;99.90
39825;DHT22;25503;52.532;13.640;2023-06-26T12:44:46;33.80;98.20
39825;DHT22;25503;52.532;13.640;2023-06-26T12:47:13;33.80;98.50
39825;DHT22;25503;52.532;13.640;2023-06-26T12:49:43;33.50;98.60
39825;DHT22;25503;52.532;13.640;2023-06-26T12:52:10;33.20;98.80
39825;DHT22;25503;52.532;13.640;2023-06-26T12:54:38;33.10;99.10
39825;DHT22;25503;52.532;13.640;2023-06-26T12:57:04;33.10;98.20
39825;DHT22;25503;52.532;13.640;2023-06-26T12:59:31;33.00;99.70
39825;DHT22;25503;52.532;13.640;2023-06-26T13:01:57;33.00;98.60
39825;DHT22;25503;52.532;13.640;2023-06-26T13:04:23;33.10;98.50
39825;DHT22;25503;52.532;13.640;2023-06-26T13:06:49;33.10;98.30
39825;DHT22;25503;52.532;13.640;2023-06-26T13:09:15;33.00;98.80
39825;DHT22;25503;52.532;13.640;2023-06-26T13:11:41;33.00;98.50
39825;DHT22;25503;52.532;13.640;2023-06-26T13:14:07;32.80;98.80
39825;DHT22;25503;52.532;13.640;2023-06-26T13:16:32;32.50;98.40
39825;DHT22;25503;52.532;13.640;2023-06-26T13:18:59;32.40;98.20
39825;DHT22;25503;52.532;13.640;2023-06-26T13:21:25;32.20;99.60
39825;DHT22;25503;52.532;13.640;2023-06-26T13:23:50;32.10;99.90
39825;DHT22;25503;52.532;13.640;2023-06-26T13:26:16;32.00;99.00
39825;DHT22;25503;52.532;13.640;2023-06-26T13:28:42;31.90;99.40
39825;DHT22;25503;52.532;13.640;2023-06-26T13:31:07;31.60;99.70
39825;DHT22;25503;52.532;13.640;2023-06-26T13:33:33;31.50;99.90
39825;DHT22;25503;52.532;13.640;2023-06-26T13:35:58;31.20;99.90
39825;DHT22;25503;52.532;13.640;2023-06-26T13:38:24;31.10;99.90
39825;DHT22;25503;52.532;13.640;2023-06-26T13:40:56;31.00;99.90
39825;DHT22;25503;52.532;13.640;2023-06-26T13:43:26;30.90;99.90
39825;DHT22;25503;52.532;13.640;2023-06-26T13:45:53;30.70;99.90
39825;DHT22;25503;52.532;13.640;2023-06-26T13:48:19;30.70;99.90
39825;DHT22;25503;52.532;13.640;2023-06-26T13:50:45;30.60;99.90
39825;DHT22;25503;52.532;13.640;2023-06-26T13:53:11;30.40;99.90
39825;DHT22;25503;52.532;13.640;2023-06-26T13:55:37;30.40;99.90
39825;DHT22;25503;52.532;13.640;2023-06-26T13:58:04;30.30;99.90
39825;DHT22;25503;52.532;13.640;2023-06-26T14:00:34;30.30;99.90
39825;DHT22;25503;52.532;13.640;2023-06-26T14:03:00;30.30;99.90
39825;DHT22;25503;52.532;13.640;2023-06-26T14:05:26;30.20;99.90
39825;DHT22;25503;52.532;13.640;2023-06-26T14:07:52;30.20;99.90
39825;DHT22;25503;52.532;13.640;2023-06-26T14:10:20;30.20;99.90
39825;DHT22;25503;52.532;13.640;2023-06-26T14:12:45;30.20;99.90
39825;DHT22;25503;52.532;13.640;2023-06-26T14:15:11;30.20;99.90
39825;DHT22;25503;52.532;13.640;2023-06-26T14:17:37;30.20;99.90
39825;DHT22;25503;52.532;13.640;2023-06-26T14:20:06;30.00;99.90
39825;DHT22;25503;52.532;13.640;2023-06-26T14:22:34;30.00;99.90
39825;DHT22;25503;52.532;13.640;2023-06-26T14:24:59;30.00;99.90
39825;DHT22;25503;52.532;13.640;2023-06-26T14:27:25;30.00;99.90
39825;DHT22;25503;52.532;13.640;2023-06-26T14:29:52;29.90;99.90
39825;DHT22;25503;52.532;13.640;2023-06-26T14:32:17;29.90;99.90
39825;DHT22;25503;52.532;13.640;2023-06-26T14:34:43;29.80;99.90
39825;DHT22;25503;52.532;13.640;2023-06-26T14:37:08;29.80;99.90
39825;DHT22;25503;52.532;13.640;2023-06-26T14:39:34;29.70;99.90
39825;DHT22;25503;52.532;13.640;2023-06-26T14:42:00;29.60;99.90
39825;DHT22;25503;52.532;13.640;2023-06-26T14:44:25;29.00;99.90
39825;DHT22;25503;52.532;13.640;2023-06-26T14:46:51;27.80;99.90
39825;DHT22;25503;52.532;13.640;2023-06-26T14:49:17;26.30;99.90
39825;DHT22;25503;52.532;13.640;2023-06-26T14:51:44;24.50;99.90
39825;DHT22;25503;52.532;13.640;2023-06-26T14:54:10;23.00;99.90
39825;DHT22;25503;52.532;13.640;2023-06-26T14:56:35;22.30;99.90
39825;DHT22;25503;52.532;13.640;2023-06-26T14:59:02;21.70;99.90
39825;DHT22;25503;52.532;13.640;2023-06-26T15:01:27;21.50;99.90
39825;DHT22;25503;52.532;13.640;2023-06-26T15:03:53;21.40;99.90
39825;DHT22;25503;52.532;13.640;2023-06-26T15:06:19;21.30;99.90
39825;DHT22;25503;52.532;13.640;2023-06-26T15:08:44;21.30;99.90
39825;DHT22;25503;52.532;13.640;2023-06-26T15:11:10;21.30;99.90
39825;DHT22;25503;52.532;13.640;2023-06-26T15:13:36;21.40;99.90
39825;DHT22;25503;52.532;13.640;2023-06-26T15:16:01;21.30;99.90
39825;DHT22;25503;52.532;13.640;2023-06-26T15:18:27;21.30;99.90
39825;DHT22;25503;52.532;13.640;2023-06-26T15:20:52;21.30;99.90
39825;DHT22;25503;52.532;13.640;2023-06-26T15:23:18;21.30;99.90